createdAt,value
2023-07-16T00:00:09.241Z,0.00
2023-07-16T00:01:09.224Z,0.00
2023-07-16T00:02:09.274Z,0.00
2023-07-16T00:03:09.262Z,0.00
2023-07-16T00:04:09.236Z,0.00
2023-07-16T00:05:09.164Z,0.00
2023-07-16T00:06:09.161Z,0.00
2023-07-16T00:07:09.147Z,0.00
2023-07-16T00:08:09.134Z,0.00
2023-07-16T00:09:09.117Z,0.00
2023-07-16T00:10:09.115Z,0.00
2023-07-16T00:11:09.094Z,0.00
2023-07-16T00:12:09.084Z,0.00
2023-07-16T00:13:09.071Z,0.00
2023-07-16T00:14:09.064Z,0.00
2023-07-16T00:15:09.053Z,0.00
2023-07-16T00:16:09.080Z,0.00
2023-07-16T00:17:09.030Z,0.00
2023-07-16T00:18:09.081Z,0.00
2023-07-16T00:19:09.018Z,0.00
2023-07-16T00:20:08.993Z,0.00
2023-07-16T00:21:08.976Z,0.00
2023-07-16T00:22:08.973Z,0.00
2023-07-16T00:23:09.045Z,0.00
2023-07-16T00:24:08.945Z,0.00
2023-07-16T00:25:08.955Z,0.00
2023-07-16T00:26:08.931Z,0.00
2023-07-16T00:27:08.948Z,0.00
2023-07-16T00:28:08.936Z,0.00
2023-07-16T00:29:08.894Z,0.00
2023-07-16T00:30:08.884Z,0.00
2023-07-16T00:31:08.984Z,0.00
2023-07-16T00:32:08.862Z,0.00
2023-07-16T00:33:08.890Z,0.00
2023-07-16T00:34:08.846Z,0.00
2023-07-16T00:35:08.826Z,0.00
2023-07-16T00:36:08.811Z,0.00
2023-07-16T00:37:08.800Z,0.00
2023-07-16T00:38:08.789Z,0.00
2023-07-16T00:39:08.779Z,0.00
2023-07-16T00:40:08.763Z,0.00
2023-07-16T00:41:08.764Z,0.00
2023-07-16T00:42:08.747Z,0.00
2023-07-16T00:43:08.762Z,0.00
2023-07-16T00:44:08.731Z,0.00
2023-07-16T00:45:08.808Z,0.00
2023-07-16T00:46:08.718Z,0.00
2023-07-16T00:47:08.696Z,0.00
2023-07-16T00:48:08.729Z,0.00
2023-07-16T00:49:08.698Z,0.00
2023-07-16T00:50:08.677Z,0.00
2023-07-16T00:51:08.641Z,0.00
2023-07-16T00:52:08.630Z,0.00
2023-07-16T00:53:08.621Z,0.00
2023-07-16T00:54:08.610Z,0.00
2023-07-16T00:55:08.596Z,0.00
2023-07-16T00:56:08.583Z,0.00
2023-07-16T00:57:08.573Z,0.00
2023-07-16T00:58:08.565Z,0.00
2023-07-16T00:59:08.563Z,0.00
2023-07-16T01:00:08.542Z,0.00
2023-07-16T01:01:08.565Z,0.00
2023-07-16T01:02:08.526Z,0.00
2023-07-16T01:03:08.561Z,0.00
2023-07-16T01:04:08.514Z,0.00
2023-07-16T01:05:08.523Z,0.00
2023-07-16T01:06:08.478Z,0.00
2023-07-16T01:07:08.526Z,0.00
2023-07-16T01:08:08.446Z,0.00
2023-07-16T01:09:08.442Z,0.00
2023-07-16T01:10:08.433Z,0.00
2023-07-16T01:11:08.415Z,0.00
2023-07-16T01:12:08.405Z,0.00
2023-07-16T01:13:08.389Z,0.00
2023-07-16T01:14:08.381Z,0.00
2023-07-16T01:15:08.377Z,0.00
2023-07-16T01:16:08.371Z,0.00
2023-07-16T01:17:08.339Z,0.00
2023-07-16T01:18:08.420Z,0.00
2023-07-16T01:19:08.323Z,0.00
2023-07-16T01:20:08.327Z,0.00
2023-07-16T01:21:08.315Z,0.00
2023-07-16T01:22:09.525Z,0.00
2023-07-16T01:23:08.409Z,0.00
2023-07-16T01:24:08.259Z,0.00
2023-07-16T01:25:08.253Z,0.00
2023-07-16T01:26:08.253Z,0.00
2023-07-16T01:27:08.230Z,0.00
2023-07-16T01:28:08.253Z,0.00
2023-07-16T01:29:08.230Z,0.00
2023-07-16T01:30:08.195Z,0.00
2023-07-16T01:31:08.226Z,0.00
2023-07-16T01:32:08.182Z,0.00
2023-07-16T01:33:08.170Z,0.00
2023-07-16T01:34:08.188Z,0.00
2023-07-16T01:35:08.140Z,0.00
2023-07-16T01:36:08.129Z,0.00
2023-07-16T01:37:08.114Z,0.00
2023-07-16T01:38:08.158Z,0.00
2023-07-16T01:39:08.086Z,0.00
2023-07-16T01:40:08.130Z,0.00
2023-07-16T01:41:08.064Z,0.00
2023-07-16T01:42:08.066Z,0.00
2023-07-16T01:43:08.043Z,0.00
2023-07-16T01:44:08.027Z,0.00
2023-07-16T01:45:08.018Z,0.00
2023-07-16T01:46:08.062Z,0.00
2023-07-16T01:47:07.997Z,0.00
2023-07-16T01:48:08.053Z,0.00
2023-07-16T01:49:07.968Z,0.00
2023-07-16T01:50:07.981Z,0.00
2023-07-16T01:51:07.974Z,0.00
2023-07-16T01:52:07.953Z,0.00
2023-07-16T01:53:07.948Z,0.00
2023-07-16T01:54:07.921Z,0.00
2023-07-16T01:55:07.901Z,0.00
2023-07-16T01:56:07.890Z,0.00
2023-07-16T01:57:07.913Z,0.00
2023-07-16T01:58:07.887Z,0.00
2023-07-16T01:59:07.855Z,0.00
2023-07-16T02:00:07.846Z,0.00
2023-07-16T02:01:07.859Z,0.00
2023-07-16T02:02:07.914Z,0.00
2023-07-16T02:03:07.894Z,0.00
2023-07-16T02:04:07.798Z,0.00
2023-07-16T02:05:07.787Z,0.00
2023-07-16T02:06:07.784Z,0.00
2023-07-16T02:07:07.763Z,0.00
2023-07-16T02:08:07.790Z,0.00
2023-07-16T02:09:07.743Z,0.00
2023-07-16T02:10:07.731Z,0.00
2023-07-16T02:11:07.721Z,0.00
2023-07-16T02:12:07.712Z,0.00
2023-07-16T02:13:07.703Z,0.00
2023-07-16T02:14:07.690Z,0.00
2023-07-16T02:15:07.684Z,0.00
2023-07-16T02:16:07.737Z,0.00
2023-07-16T02:17:07.648Z,0.00
2023-07-16T02:18:07.638Z,0.00
2023-07-16T02:19:07.634Z,0.00
2023-07-16T02:20:07.617Z,0.00
2023-07-16T02:21:07.607Z,0.00
2023-07-16T02:22:07.596Z,0.00
2023-07-16T02:23:07.664Z,0.00
2023-07-16T02:24:07.586Z,0.00
2023-07-16T02:25:07.564Z,0.00
2023-07-16T02:26:07.546Z,0.00
2023-07-16T02:27:07.540Z,0.00
2023-07-16T02:28:07.531Z,0.00
2023-07-16T02:29:07.511Z,0.00
2023-07-16T02:30:07.537Z,0.00
2023-07-16T02:31:07.523Z,0.00
2023-07-16T02:32:07.510Z,0.00
2023-07-16T02:33:07.462Z,0.00
2023-07-16T02:34:07.449Z,0.00
2023-07-16T02:35:07.518Z,0.00
2023-07-16T02:36:07.512Z,0.00
2023-07-16T02:37:07.424Z,0.00
2023-07-16T02:38:07.411Z,0.00
2023-07-16T02:39:07.395Z,0.00
2023-07-16T02:40:07.387Z,0.00
2023-07-16T02:41:07.382Z,0.00
2023-07-16T02:42:07.359Z,0.00
2023-07-16T02:43:07.345Z,0.00
2023-07-16T02:44:07.331Z,0.00
2023-07-16T02:45:07.325Z,0.00
2023-07-16T02:46:07.315Z,0.00
2023-07-16T02:47:07.355Z,0.00
2023-07-16T02:48:07.336Z,0.00
2023-07-16T02:49:07.279Z,0.00
2023-07-16T02:50:07.289Z,0.00
2023-07-16T02:51:07.259Z,0.00
2023-07-16T02:52:07.252Z,0.00
2023-07-16T02:53:07.231Z,0.00
2023-07-16T02:54:07.219Z,0.00
2023-07-16T02:55:07.217Z,0.00
2023-07-16T02:56:07.198Z,0.00
2023-07-16T02:57:07.188Z,0.00
2023-07-16T02:58:07.164Z,0.00
2023-07-16T02:59:07.168Z,0.00
2023-07-16T03:00:07.152Z,0.00
2023-07-16T03:01:07.144Z,0.00
2023-07-16T03:02:16.411Z,0.00
2023-07-16T03:04:13.512Z,0.00
2023-07-16T03:05:13.022Z,0.00
2023-07-16T03:06:12.643Z,0.00
2023-07-16T03:07:13.457Z,0.00
2023-07-16T03:08:13.013Z,0.00
2023-07-16T03:09:12.529Z,0.00
2023-07-16T03:10:12.504Z,0.00
2023-07-16T03:11:12.488Z,0.00
2023-07-16T03:12:12.557Z,0.00
2023-07-16T03:13:12.464Z,0.00
2023-07-16T03:14:12.455Z,0.00
2023-07-16T03:15:12.452Z,0.00
2023-07-16T03:16:12.456Z,0.00
2023-07-16T03:17:12.577Z,0.00
2023-07-16T03:18:12.405Z,0.00
2023-07-16T03:19:12.413Z,0.00
2023-07-16T03:20:12.380Z,0.00
2023-07-16T03:21:12.367Z,0.00
2023-07-16T03:22:12.380Z,0.00
2023-07-16T03:23:12.362Z,0.00
2023-07-16T03:24:12.335Z,0.00
2023-07-16T03:25:12.323Z,0.00
2023-07-16T03:26:12.308Z,0.00
2023-07-16T03:27:18.204Z,0.00
2023-07-16T03:28:12.289Z,0.00
2023-07-16T03:29:12.282Z,0.00
2023-07-16T03:30:12.268Z,0.00
2023-07-16T03:31:12.307Z,0.00
2023-07-16T03:32:12.263Z,0.00
2023-07-16T03:33:12.279Z,0.00
2023-07-16T03:34:12.226Z,0.00
2023-07-16T03:35:12.201Z,0.00
2023-07-16T03:36:12.193Z,0.00
2023-07-16T03:37:12.188Z,0.00
2023-07-16T03:38:12.166Z,0.00
2023-07-16T03:39:12.161Z,0.00
2023-07-16T03:40:12.224Z,0.00
2023-07-16T03:41:12.131Z,0.00
2023-07-16T03:42:12.129Z,0.00
2023-07-16T03:43:12.118Z,0.00
2023-07-16T03:44:12.091Z,0.00
2023-07-16T03:45:12.101Z,0.00
2023-07-16T03:46:12.074Z,5.63
2023-07-16T03:47:12.093Z,5.63
2023-07-16T03:48:12.133Z,5.63
2023-07-16T03:49:12.035Z,5.63
2023-07-16T03:50:12.033Z,5.63
2023-07-16T03:51:12.015Z,5.63
2023-07-16T03:52:11.999Z,5.63
2023-07-16T03:53:12.010Z,5.63
2023-07-16T03:54:11.995Z,5.63
2023-07-16T03:55:11.960Z,5.63
2023-07-16T03:56:11.949Z,5.63
2023-07-16T03:57:11.943Z,5.63
2023-07-16T03:58:11.950Z,5.63
2023-07-16T03:59:11.919Z,5.63
2023-07-16T04:00:11.920Z,5.63
2023-07-16T04:01:11.903Z,5.63
2023-07-16T04:02:11.965Z,11.25
2023-07-16T04:03:11.924Z,11.25
2023-07-16T04:04:11.891Z,11.25
2023-07-16T04:05:11.835Z,11.25
2023-07-16T04:06:11.826Z,11.25
2023-07-16T04:07:11.824Z,11.25
2023-07-16T04:08:11.808Z,11.25
2023-07-16T04:09:11.791Z,11.25
2023-07-16T04:10:11.782Z,11.25
2023-07-16T04:11:11.766Z,11.25
2023-07-16T04:12:11.753Z,11.25
2023-07-16T04:13:11.741Z,11.25
2023-07-16T04:14:11.725Z,11.25
2023-07-16T04:15:11.804Z,16.88
2023-07-16T04:16:12.058Z,16.88
2023-07-16T04:17:11.696Z,16.88
2023-07-16T04:18:11.692Z,16.88
2023-07-16T04:19:11.667Z,16.88
2023-07-16T04:20:11.663Z,16.88
2023-07-16T04:21:11.641Z,16.88
2023-07-16T04:22:11.629Z,22.50
2023-07-16T04:23:12.041Z,22.50
2023-07-16T04:24:13.032Z,22.50
2023-07-16T04:25:11.778Z,22.50
2023-07-16T04:26:11.603Z,28.13
2023-07-16T04:27:11.580Z,28.13
2023-07-16T04:28:11.566Z,28.13
2023-07-16T04:29:11.546Z,28.13
2023-07-16T04:30:11.536Z,28.13
2023-07-16T04:31:11.555Z,28.13
2023-07-16T04:32:11.511Z,28.13
2023-07-16T04:33:11.510Z,28.13
2023-07-16T04:34:11.494Z,28.13
2023-07-16T04:35:11.480Z,28.13
2023-07-16T04:36:11.466Z,28.13
2023-07-16T04:37:11.450Z,28.13
2023-07-16T04:38:11.440Z,28.13
2023-07-16T04:39:11.423Z,28.13
2023-07-16T04:40:11.414Z,28.13
2023-07-16T04:41:11.401Z,28.13
2023-07-16T04:42:11.406Z,33.75
2023-07-16T04:43:11.407Z,33.75
2023-07-16T04:44:11.362Z,33.75
2023-07-16T04:45:11.364Z,33.75
2023-07-16T04:46:11.419Z,33.75
2023-07-16T04:47:11.342Z,39.38
2023-07-16T04:48:11.317Z,39.38
2023-07-16T04:49:11.312Z,39.38
2023-07-16T04:50:11.294Z,39.38
2023-07-16T04:51:11.273Z,45.00
2023-07-16T04:52:11.264Z,45.00
2023-07-16T04:53:11.268Z,45.00
2023-07-16T04:54:11.246Z,45.00
2023-07-16T04:55:11.239Z,45.00
2023-07-16T04:56:11.220Z,39.38
2023-07-16T04:57:11.202Z,50.63
2023-07-16T04:58:11.196Z,50.63
2023-07-16T04:59:11.175Z,45.00
2023-07-16T05:00:11.168Z,50.63
2023-07-16T05:01:11.151Z,39.38
2023-07-16T05:02:11.194Z,39.38
2023-07-16T05:03:11.130Z,39.38
2023-07-16T05:04:11.170Z,39.38
2023-07-16T05:05:11.107Z,39.38
2023-07-16T05:06:11.102Z,45.00
2023-07-16T05:07:11.083Z,45.00
2023-07-16T05:08:11.076Z,45.00
2023-07-16T05:09:11.063Z,50.63
2023-07-16T05:10:11.044Z,39.38
2023-07-16T05:11:11.041Z,45.00
2023-07-16T05:12:11.018Z,50.63
2023-07-16T05:13:11.008Z,50.63
2023-07-16T05:14:10.997Z,50.63
2023-07-16T05:15:10.987Z,50.63
2023-07-16T05:16:11.035Z,45.00
2023-07-16T05:17:11.085Z,56.25
2023-07-16T05:18:10.975Z,56.25
2023-07-16T05:19:10.941Z,56.25
2023-07-16T05:20:10.929Z,56.25
2023-07-16T05:21:10.920Z,56.25
2023-07-16T05:22:10.901Z,56.25
2023-07-16T05:23:10.940Z,56.25
2023-07-16T05:24:10.881Z,56.25
2023-07-16T05:25:10.869Z,56.25
2023-07-16T05:26:10.853Z,61.88
2023-07-16T05:27:10.866Z,61.88
2023-07-16T05:28:10.864Z,61.88
2023-07-16T05:29:10.955Z,61.88
2023-07-16T05:30:10.824Z,61.88
2023-07-16T05:31:10.792Z,67.50
2023-07-16T05:32:10.851Z,67.50
2023-07-16T05:33:10.772Z,67.50
2023-07-16T05:34:10.771Z,67.50
2023-07-16T05:35:10.755Z,67.50
2023-07-16T05:36:10.729Z,67.50
2023-07-16T05:37:10.731Z,67.50
2023-07-16T05:38:10.709Z,67.50
2023-07-16T05:39:10.696Z,73.13
2023-07-16T05:40:10.740Z,73.13
2023-07-16T05:41:10.705Z,73.13
2023-07-16T05:42:10.659Z,73.13
2023-07-16T05:43:10.646Z,73.13
2023-07-16T05:44:10.646Z,73.13
2023-07-16T05:45:10.629Z,78.75
2023-07-16T05:46:10.647Z,78.75
2023-07-16T05:47:10.610Z,78.75
2023-07-16T05:48:10.649Z,78.75
2023-07-16T05:49:10.591Z,78.75
2023-07-16T05:50:10.583Z,78.75
2023-07-16T05:51:32.678Z,78.75
2023-07-16T05:52:10.543Z,84.38
2023-07-16T05:53:11.069Z,84.38
2023-07-16T05:54:10.643Z,84.38
2023-07-16T05:55:10.506Z,84.38
2023-07-16T05:56:10.517Z,84.38
2023-07-16T05:57:10.504Z,90.00
2023-07-16T05:58:10.468Z,90.00
2023-07-16T05:59:10.475Z,90.00
2023-07-16T06:00:10.445Z,90.00
2023-07-16T06:01:11.199Z,95.63
2023-07-16T06:02:10.432Z,95.63
2023-07-16T06:03:10.465Z,95.63
2023-07-16T06:04:10.606Z,95.63
2023-07-16T06:05:10.392Z,101.25
2023-07-16T06:06:10.377Z,101.25
2023-07-16T06:07:10.373Z,101.25
2023-07-16T06:08:10.357Z,101.25
2023-07-16T06:09:10.343Z,101.25
2023-07-16T06:10:10.346Z,101.25
2023-07-16T06:11:10.356Z,106.88
2023-07-16T06:12:10.308Z,106.88
2023-07-16T06:13:10.314Z,112.50
2023-07-16T06:14:10.286Z,112.50
2023-07-16T06:15:10.278Z,118.13
2023-07-16T06:16:10.413Z,118.13
2023-07-16T06:17:10.260Z,123.75
2023-07-16T06:18:10.240Z,129.38
2023-07-16T06:19:10.232Z,129.38
2023-07-16T06:20:10.229Z,135.00
2023-07-16T06:21:10.210Z,140.63
2023-07-16T06:22:10.349Z,146.25
2023-07-16T06:23:10.273Z,151.88
2023-07-16T06:24:10.177Z,151.88
2023-07-16T06:25:10.175Z,157.50
2023-07-16T06:26:10.156Z,157.50
2023-07-16T06:27:10.142Z,163.13
2023-07-16T06:28:10.337Z,163.13
2023-07-16T06:29:10.212Z,168.75
2023-07-16T06:30:10.255Z,174.38
2023-07-16T06:31:10.171Z,180.00
2023-07-16T06:32:10.086Z,180.00
2023-07-16T06:33:10.119Z,191.25
2023-07-16T06:34:10.074Z,202.50
2023-07-16T06:35:10.065Z,219.38
2023-07-16T06:36:10.103Z,208.13
2023-07-16T06:37:11.227Z,196.88
2023-07-16T06:38:10.288Z,213.75
2023-07-16T06:39:10.105Z,213.75
2023-07-16T06:40:10.024Z,213.75
2023-07-16T06:41:10.006Z,225.00
2023-07-16T06:42:10.050Z,219.38
2023-07-16T06:43:09.970Z,230.63
2023-07-16T06:44:09.969Z,230.63
2023-07-16T06:45:09.973Z,236.25
2023-07-16T06:46:09.976Z,236.25
2023-07-16T06:47:09.945Z,241.88
2023-07-16T06:48:09.922Z,241.88
2023-07-16T06:49:09.936Z,247.50
2023-07-16T06:50:09.916Z,253.13
2023-07-16T06:51:09.904Z,258.75
2023-07-16T06:52:10.160Z,258.75
2023-07-16T06:53:10.187Z,270.00
2023-07-16T06:54:13.942Z,275.63
2023-07-16T06:55:09.859Z,286.88
2023-07-16T06:56:09.907Z,298.13
2023-07-16T06:57:09.941Z,298.13
2023-07-16T06:58:09.825Z,303.75
2023-07-16T06:59:09.816Z,343.13
2023-07-16T07:00:09.805Z,320.63
2023-07-16T07:01:09.825Z,101.25
2023-07-16T07:02:09.786Z,331.88
2023-07-16T07:03:09.885Z,343.13
2023-07-16T07:04:09.803Z,354.38
2023-07-16T07:05:09.786Z,365.63
2023-07-16T07:06:09.756Z,365.63
2023-07-16T07:07:09.748Z,393.75
2023-07-16T07:08:09.744Z,399.38
2023-07-16T07:09:09.738Z,393.75
2023-07-16T07:10:09.729Z,399.38
2023-07-16T07:11:09.790Z,405.00
2023-07-16T07:12:09.962Z,410.63
2023-07-16T07:13:09.702Z,410.63
2023-07-16T07:14:11.937Z,416.25
2023-07-16T07:15:09.690Z,427.50
2023-07-16T07:16:09.868Z,455.63
2023-07-16T07:17:09.689Z,461.25
2023-07-16T07:18:09.679Z,393.75
2023-07-16T07:19:09.656Z,450.00
2023-07-16T07:20:09.656Z,461.25
2023-07-16T07:21:09.645Z,466.88
2023-07-16T07:22:09.788Z,472.50
2023-07-16T07:23:09.679Z,483.75
2023-07-16T07:24:09.639Z,483.75
2023-07-16T07:25:09.648Z,489.38
2023-07-16T07:26:09.631Z,489.38
2023-07-16T07:27:09.614Z,511.88
2023-07-16T07:28:09.614Z,506.25
2023-07-16T07:29:09.606Z,500.63
2023-07-16T07:30:09.598Z,511.88
2023-07-16T07:31:09.619Z,534.38
2023-07-16T07:32:09.595Z,540.00
2023-07-16T07:33:09.616Z,534.38
2023-07-16T07:34:09.609Z,528.75
2023-07-16T07:35:09.582Z,528.75
2023-07-16T07:36:09.570Z,534.38
2023-07-16T07:37:09.574Z,540.00
2023-07-16T07:38:09.564Z,545.63
2023-07-16T07:39:09.564Z,545.63
2023-07-16T07:40:09.560Z,562.50
2023-07-16T07:41:09.552Z,579.38
2023-07-16T07:42:09.558Z,579.38
2023-07-16T07:43:09.549Z,579.38
2023-07-16T07:44:09.554Z,579.38
2023-07-16T07:45:09.568Z,573.75
2023-07-16T07:46:09.552Z,585.00
2023-07-16T07:47:09.615Z,590.63
2023-07-16T07:48:09.579Z,601.88
2023-07-16T07:49:09.536Z,613.13
2023-07-16T07:50:09.538Z,607.50
2023-07-16T07:51:09.519Z,613.13
2023-07-16T07:52:09.523Z,613.13
2023-07-16T07:53:09.514Z,607.50
2023-07-16T07:54:09.527Z,613.13
2023-07-16T07:55:09.547Z,624.38
2023-07-16T07:56:09.550Z,624.38
2023-07-16T07:57:09.511Z,489.38
2023-07-16T07:58:09.517Z,635.63
2023-07-16T07:59:09.579Z,646.88
2023-07-16T08:00:09.534Z,646.88
2023-07-16T08:01:09.655Z,669.38
2023-07-16T08:02:09.516Z,663.75
2023-07-16T08:03:11.001Z,478.13
2023-07-16T08:04:09.572Z,680.63
2023-07-16T08:05:09.675Z,708.75
2023-07-16T08:06:09.488Z,281.25
2023-07-16T08:07:09.488Z,180.00
2023-07-16T08:08:09.480Z,641.25
2023-07-16T08:09:09.475Z,675.00
2023-07-16T08:10:09.472Z,691.88
2023-07-16T08:11:09.475Z,686.25
2023-07-16T08:12:09.476Z,697.50
2023-07-16T08:13:09.474Z,703.13
2023-07-16T08:14:09.482Z,691.88
2023-07-16T08:15:09.471Z,646.88
2023-07-16T08:16:09.470Z,748.13
2023-07-16T08:17:09.484Z,776.25
2023-07-16T08:18:09.514Z,258.75
2023-07-16T08:19:09.471Z,225.00
2023-07-16T08:20:09.458Z,748.13
2023-07-16T08:21:09.456Z,720.00
2023-07-16T08:22:09.489Z,180.00
2023-07-16T08:23:09.507Z,731.25
2023-07-16T08:24:09.469Z,720.00
2023-07-16T08:25:09.453Z,191.25
2023-07-16T08:26:09.489Z,731.25
2023-07-16T08:27:09.443Z,720.00
2023-07-16T08:28:09.449Z,714.38
2023-07-16T08:29:09.453Z,725.63
2023-07-16T08:30:09.448Z,765.00
2023-07-16T08:31:09.492Z,765.00
2023-07-16T08:32:09.446Z,748.13
2023-07-16T08:33:09.542Z,736.88
2023-07-16T08:34:09.435Z,753.75
2023-07-16T08:35:09.436Z,776.25
2023-07-16T08:36:09.444Z,770.63
2023-07-16T08:37:09.467Z,742.50
2023-07-16T08:38:09.542Z,748.13
2023-07-16T08:39:09.504Z,742.50
2023-07-16T08:40:09.433Z,748.13
2023-07-16T08:41:09.543Z,753.75
2023-07-16T08:42:10.167Z,748.13
2023-07-16T08:43:09.480Z,753.75
2023-07-16T08:44:09.429Z,770.63
2023-07-16T08:45:09.436Z,776.25
2023-07-16T08:46:09.522Z,776.25
2023-07-16T08:47:09.763Z,804.38
2023-07-16T08:48:09.579Z,810.00
2023-07-16T08:49:09.465Z,838.13
2023-07-16T08:50:09.823Z,753.75
2023-07-16T08:51:09.742Z,759.38
2023-07-16T08:52:09.435Z,697.50
2023-07-16T08:53:09.443Z,635.63
2023-07-16T08:54:09.492Z,641.25
2023-07-16T08:55:09.438Z,663.75
2023-07-16T08:56:09.438Z,686.25
2023-07-16T08:57:09.470Z,331.88
2023-07-16T08:58:09.458Z,264.38
2023-07-16T08:59:09.442Z,292.50
2023-07-16T09:00:09.438Z,759.38
2023-07-16T09:01:09.435Z,686.25
2023-07-16T09:02:09.489Z,579.38
2023-07-16T09:03:09.493Z,680.63
2023-07-16T09:04:09.469Z,483.75
2023-07-16T09:05:12.113Z,568.13
2023-07-16T09:06:09.501Z,556.88
2023-07-16T09:07:09.433Z,438.75
2023-07-16T09:08:09.438Z,427.50
2023-07-16T09:09:09.480Z,461.25
2023-07-16T09:10:09.446Z,641.25
2023-07-16T09:11:09.435Z,528.75
2023-07-16T09:12:09.431Z,596.25
2023-07-16T09:13:09.425Z,556.88
2023-07-16T09:14:09.426Z,669.38
2023-07-16T09:15:09.421Z,691.88
2023-07-16T09:16:09.419Z,849.38
2023-07-16T09:17:09.437Z,843.75
2023-07-16T09:18:09.537Z,883.13
2023-07-16T09:19:09.417Z,939.38
2023-07-16T09:20:09.438Z,866.25
2023-07-16T09:21:09.420Z,770.63
2023-07-16T09:22:09.416Z,708.75
2023-07-16T09:23:09.436Z,883.13
2023-07-16T09:24:09.442Z,708.75
2023-07-16T09:25:09.439Z,860.63
2023-07-16T09:26:09.428Z,961.88
2023-07-16T09:27:09.438Z,1057.50
2023-07-16T09:28:09.415Z,1063.13
2023-07-16T09:29:09.425Z,1051.88
2023-07-16T09:30:09.399Z,1051.88
2023-07-16T09:31:09.477Z,1051.88
2023-07-16T09:32:09.532Z,1040.63
2023-07-16T09:33:09.444Z,1012.50
2023-07-16T09:34:09.407Z,1080.00
2023-07-16T09:35:09.427Z,1119.38
2023-07-16T09:36:09.406Z,1299.38
2023-07-16T09:37:09.408Z,1575.00
2023-07-16T09:38:09.400Z,1704.38
2023-07-16T09:39:09.404Z,1732.50
2023-07-16T09:40:09.418Z,1783.13
2023-07-16T09:41:09.418Z,1777.50
2023-07-16T09:42:09.408Z,1760.63
2023-07-16T09:43:09.424Z,1665.00
2023-07-16T09:44:09.667Z,1749.38
2023-07-16T09:45:09.650Z,1563.75
2023-07-16T09:46:09.479Z,1490.63
2023-07-16T09:47:09.420Z,1580.63
2023-07-16T09:48:09.462Z,1575.00
2023-07-16T09:49:09.454Z,1569.38
2023-07-16T09:50:09.431Z,1608.75
2023-07-16T09:51:09.435Z,1631.25
2023-07-16T09:52:09.429Z,1597.50
2023-07-16T09:53:09.450Z,1580.63
2023-07-16T09:54:09.447Z,1597.50
2023-07-16T09:55:09.486Z,1636.88
2023-07-16T09:56:09.447Z,1659.38
2023-07-16T09:57:09.451Z,1670.63
2023-07-16T09:58:09.449Z,1715.63
2023-07-16T09:59:09.458Z,1687.50
2023-07-16T10:00:09.617Z,1670.63
2023-07-16T10:01:09.548Z,1687.50
2023-07-16T10:02:09.466Z,1625.63
2023-07-16T10:03:09.537Z,1597.50
2023-07-16T10:04:09.469Z,1586.25
2023-07-16T10:05:09.469Z,1546.88
2023-07-16T10:06:09.480Z,1541.25
2023-07-16T10:07:09.496Z,1558.13
2023-07-16T10:08:09.480Z,1518.75
2023-07-16T10:09:09.505Z,1552.50
2023-07-16T10:10:09.485Z,1591.88
2023-07-16T10:11:09.490Z,1631.25
2023-07-16T10:12:09.578Z,1575.00
2023-07-16T10:13:09.501Z,393.75
2023-07-16T10:14:09.503Z,326.25
2023-07-16T10:15:09.520Z,978.75
2023-07-16T10:16:09.566Z,1586.25
2023-07-16T10:17:09.507Z,759.38
2023-07-16T10:18:09.543Z,1636.88
2023-07-16T10:19:09.521Z,1631.25
2023-07-16T10:20:09.515Z,1653.75
2023-07-16T10:21:09.755Z,1760.63
2023-07-16T10:22:09.532Z,309.38
2023-07-16T10:23:09.675Z,1665.00
2023-07-16T10:24:09.779Z,1653.75
2023-07-16T10:25:09.936Z,1710.00
2023-07-16T10:26:09.536Z,1693.13
2023-07-16T10:27:09.546Z,1575.00
2023-07-16T10:28:09.544Z,1524.38
2023-07-16T10:29:09.668Z,1591.88
2023-07-16T10:30:09.988Z,1659.38
2023-07-16T10:31:10.030Z,1698.75
2023-07-16T10:32:09.559Z,1608.75
2023-07-16T10:33:09.582Z,1597.50
2023-07-16T10:34:09.566Z,1665.00
2023-07-16T10:35:09.565Z,1608.75
2023-07-16T10:36:09.753Z,1513.13
2023-07-16T10:37:09.734Z,1417.50
2023-07-16T10:38:09.585Z,1440.00
2023-07-16T10:39:09.586Z,258.75
2023-07-16T10:40:09.625Z,1231.88
2023-07-16T10:41:09.597Z,1530.00
2023-07-16T10:42:09.601Z,1226.25
2023-07-16T10:43:09.603Z,208.13
2023-07-16T10:44:09.603Z,1530.00
2023-07-16T10:45:09.612Z,1552.50
2023-07-16T10:46:09.635Z,556.88
2023-07-16T10:47:09.613Z,275.63
2023-07-16T10:48:09.638Z,1507.50
2023-07-16T10:49:09.624Z,331.88
2023-07-16T10:50:09.627Z,618.75
2023-07-16T10:51:09.627Z,236.25
2023-07-16T10:52:09.624Z,225.00
2023-07-16T10:53:09.627Z,337.50
2023-07-16T10:54:09.646Z,489.38
2023-07-16T10:55:09.643Z,1333.13
2023-07-16T10:56:09.627Z,1158.75
2023-07-16T10:57:09.640Z,1080.00
2023-07-16T10:58:09.638Z,1012.50
2023-07-16T10:59:09.678Z,995.63
2023-07-16T11:00:09.640Z,990.00
2023-07-16T11:01:09.662Z,995.63
2023-07-16T11:02:11.521Z,1006.88
2023-07-16T11:03:09.683Z,1001.25
2023-07-16T11:04:09.695Z,1006.88
2023-07-16T11:05:09.649Z,995.63
2023-07-16T11:06:09.643Z,1001.25
2023-07-16T11:07:09.650Z,1046.25
2023-07-16T11:08:09.681Z,1141.88
2023-07-16T11:09:09.651Z,1102.50
2023-07-16T11:10:09.656Z,1046.25
2023-07-16T11:11:09.656Z,1001.25
2023-07-16T11:12:09.659Z,1018.13
2023-07-16T11:13:09.675Z,1006.88
2023-07-16T11:14:09.670Z,1029.38
2023-07-16T11:15:09.663Z,590.63
2023-07-16T11:16:09.851Z,1125.00
2023-07-16T11:17:09.685Z,1243.13
2023-07-16T11:18:09.736Z,1468.13
2023-07-16T11:19:09.671Z,1485.00
2023-07-16T11:20:09.683Z,1552.50
2023-07-16T11:21:09.725Z,1518.75
2023-07-16T11:22:09.691Z,1530.00
2023-07-16T11:23:09.778Z,354.38
2023-07-16T11:24:09.685Z,860.63
2023-07-16T11:25:09.695Z,978.75
2023-07-16T11:26:09.701Z,770.63
2023-07-16T11:27:09.692Z,1209.38
2023-07-16T11:28:09.698Z,635.63
2023-07-16T11:29:09.727Z,416.25
2023-07-16T11:30:09.735Z,253.13
2023-07-16T11:31:09.767Z,264.38
2023-07-16T11:32:09.725Z,393.75
2023-07-16T11:33:09.833Z,315.00
2023-07-16T11:34:09.709Z,258.75
2023-07-16T11:35:09.717Z,410.63
2023-07-16T11:36:09.708Z,1490.63
2023-07-16T11:37:09.717Z,1614.38
2023-07-16T11:38:09.723Z,1243.13
2023-07-16T11:39:09.738Z,343.13
2023-07-16T11:40:09.730Z,1760.63
2023-07-16T11:41:09.726Z,686.25
2023-07-16T11:42:09.721Z,331.88
2023-07-16T11:43:10.319Z,309.38
2023-07-16T11:44:10.317Z,388.13
2023-07-16T11:45:09.717Z,1704.38
2023-07-16T11:46:09.718Z,315.00
2023-07-16T11:47:09.736Z,1625.63
2023-07-16T11:48:09.733Z,388.13
2023-07-16T11:49:09.716Z,1552.50
2023-07-16T11:50:09.722Z,1288.13
2023-07-16T11:51:09.720Z,1096.88
2023-07-16T11:52:09.924Z,900.00
2023-07-16T11:53:10.029Z,843.75
2023-07-16T11:54:09.751Z,855.00
2023-07-16T11:55:09.729Z,821.25
2023-07-16T11:56:09.726Z,770.63
2023-07-16T11:57:09.728Z,776.25
2023-07-16T11:58:09.744Z,759.38
2023-07-16T11:59:11.379Z,759.38
2023-07-16T12:00:09.729Z,753.75
2023-07-16T12:01:09.776Z,736.88
2023-07-16T12:02:09.734Z,725.63
2023-07-16T12:03:09.844Z,720.00
2023-07-16T12:04:09.829Z,714.38
2023-07-16T12:05:11.127Z,736.88
2023-07-16T12:06:09.747Z,748.13
2023-07-16T12:07:09.745Z,748.13
2023-07-16T12:08:09.749Z,736.88
2023-07-16T12:09:09.752Z,742.50
2023-07-16T12:10:09.769Z,736.88
2023-07-16T12:11:09.750Z,731.25
2023-07-16T12:12:09.752Z,708.75
2023-07-16T12:13:09.759Z,703.13
2023-07-16T12:14:09.764Z,697.50
2023-07-16T12:15:09.762Z,691.88
2023-07-16T12:16:09.767Z,686.25
2023-07-16T12:17:09.805Z,680.63
2023-07-16T12:18:09.908Z,680.63
2023-07-16T12:19:09.777Z,669.38
2023-07-16T12:20:09.764Z,658.13
2023-07-16T12:21:09.779Z,646.88
2023-07-16T12:22:09.765Z,641.25
2023-07-16T12:23:09.875Z,635.63
2023-07-16T12:24:09.770Z,658.13
2023-07-16T12:25:09.775Z,675.00
2023-07-16T12:26:09.804Z,680.63
2023-07-16T12:27:09.859Z,663.75
2023-07-16T12:28:09.776Z,675.00
2023-07-16T12:29:09.780Z,663.75
2023-07-16T12:30:09.790Z,652.50
2023-07-16T12:31:09.818Z,635.63
2023-07-16T12:32:09.778Z,545.63
2023-07-16T12:33:09.822Z,196.88
2023-07-16T12:34:09.789Z,298.13
2023-07-16T12:35:10.183Z,646.88
2023-07-16T12:36:09.840Z,641.25
2023-07-16T12:37:09.792Z,247.50
2023-07-16T12:38:09.782Z,343.13
2023-07-16T12:39:09.823Z,343.13
2023-07-16T12:40:09.795Z,618.75
2023-07-16T12:41:09.792Z,613.13
2023-07-16T12:42:09.804Z,568.13
2023-07-16T12:43:09.807Z,500.63
2023-07-16T12:44:09.793Z,579.38
2023-07-16T12:45:09.789Z,511.88